EWG60T EDDK-LGKO
Flight info
| Callsign | EWG60T |
|---|---|
| Flight time | 2h 52m |
| Altitude | 35000 |
| Route | KUMIK2Q KUMIK L603 TESGA DCT ESATI DCT DETEV DCT DINKU DCT BESNI DCT LATLO DCT OBEDI DCT BERTA DCT TEBLI DCT TIVNU DCT MEDUX UM867 KOGAT DCT ERANA UL737 TSL UN130 MES UN139 LURUS L995 KOPAR |
| Aircraft | A320/M-SDE3FGHIRWY/LB1 |
Departure
| Time | 2026-04-26 09:04 |
|---|---|
| Airport | Cologne Bonn Airport (EDDK) |
Arrival
| Time | 2026-04-26 11:56 |
|---|---|
| Airport | Kos International Airport "Ippokratis" (LGKO) |
| Time | Latitude | Longitude | Altitude | Speed | Heading |
|---|---|---|---|---|---|
| 2026-04-26 08:17 | 50.87907 | 7.12496 | 232 ft | 0 kts | 288° |
| 2026-04-26 08:55 | 50.87902 | 7.12520 | 236 ft | 4 kts | 288° |
| 2026-04-26 08:56 | 50.87895 | 7.12554 | 233 ft | 4 kts | 291° |
| 2026-04-26 08:56 | 50.87882 | 7.12587 | 236 ft | 4 kts | 331° |
| 2026-04-26 08:56 | 50.87858 | 7.12595 | 236 ft | 4 kts | 12° |
| 2026-04-26 08:56 | 50.87838 | 7.12586 | 232 ft | 0 kts | 18° |
| 2026-04-26 09:00 | 50.87846 | 7.12590 | 232 ft | 3 kts | 18° |
| 2026-04-26 09:00 | 50.87885 | 7.12610 | 232 ft | 8 kts | 17° |
| 2026-04-26 09:01 | 50.87940 | 7.12645 | 234 ft | 8 kts | 30° |
| 2026-04-26 09:01 | 50.87974 | 7.12693 | 233 ft | 4 kts | 49° |
| 2026-04-26 09:01 | 50.87981 | 7.12707 | 234 ft | 2 kts | 52° |
| 2026-04-26 09:01 | 50.87995 | 7.12746 | 236 ft | 5 kts | 67° |
| 2026-04-26 09:02 | 50.88001 | 7.12775 | 237 ft | 3 kts | 73° |
| 2026-04-26 09:02 | 50.88009 | 7.12853 | 239 ft | 10 kts | 85° |
| 2026-04-26 09:02 | 50.88000 | 7.12965 | 239 ft | 10 kts | 112° |
| 2026-04-26 09:02 | 50.87956 | 7.13042 | 239 ft | 9 kts | 137° |
| 2026-04-26 09:03 | 50.87850 | 7.13196 | 239 ft | 48 kts | 137° |
| 2026-04-26 09:03 | 50.87429 | 7.13807 | 241 ft | 112 kts | 137° |
| 2026-04-26 09:03 | 50.86732 | 7.14814 | 270 ft | 156 kts | 137° |
| 2026-04-26 09:03 | 50.85897 | 7.16041 | 743 ft | 162 kts | 135° |
| 2026-04-26 09:04 | 50.85071 | 7.17249 | 1475 ft | 162 kts | 136° |
| 2026-04-26 09:04 | 50.84231 | 7.18466 | 2084 ft | 168 kts | 136° |
| 2026-04-26 09:04 | 50.83343 | 7.19750 | 2530 ft | 178 kts | 137° |
| 2026-04-26 09:04 | 50.82400 | 7.21109 | 2990 ft | 188 kts | 132° |
| 2026-04-26 09:05 | 50.81662 | 7.22845 | 3441 ft | 195 kts | 111° |
| 2026-04-26 09:05 | 50.81354 | 7.24943 | 3930 ft | 199 kts | 97° |
| 2026-04-26 09:05 | 50.81148 | 7.27183 | 4273 ft | 216 kts | 96° |
| 2026-04-26 09:05 | 50.80947 | 7.29655 | 4581 ft | 238 kts | 95° |
| 2026-04-26 09:06 | 50.80745 | 7.32367 | 5052 ft | 258 kts | 94° |
| 2026-04-26 09:06 | 50.80519 | 7.35264 | 5736 ft | 270 kts | 95° |
| 2026-04-26 09:06 | 50.80263 | 7.38238 | 6510 ft | 276 kts | 95° |
| 2026-04-26 09:06 | 50.79989 | 7.41283 | 7296 ft | 283 kts | 95° |
| 2026-04-26 09:07 | 50.79706 | 7.44392 | 8109 ft | 287 kts | 95° |
| 2026-04-26 09:07 | 50.79420 | 7.47540 | 8924 ft | 291 kts | 96° |
| 2026-04-26 09:07 | 50.79130 | 7.50733 | 9730 ft | 296 kts | 95° |
| 2026-04-26 09:07 | 50.78838 | 7.53970 | 10507 ft | 300 kts | 96° |
| 2026-04-26 09:08 | 50.78549 | 7.57337 | 10907 ft | 318 kts | 94° |
| 2026-04-26 09:08 | 50.78237 | 7.60892 | 11282 ft | 336 kts | 97° |
| 2026-04-26 09:08 | 50.77863 | 7.64579 | 11764 ft | 347 kts | 97° |
| 2026-04-26 09:08 | 50.77464 | 7.68375 | 12447 ft | 353 kts | 98° |
| 2026-04-26 09:09 | 50.77047 | 7.72210 | 13172 ft | 357 kts | 100° |
| 2026-04-26 09:09 | 50.76215 | 7.75939 | 13866 ft | 362 kts | 119° |
| 2026-04-26 09:09 | 50.74733 | 7.79179 | 14521 ft | 366 kts | 128° |
| 2026-04-26 09:09 | 50.73133 | 7.82329 | 15172 ft | 369 kts | 129° |
| 2026-04-26 09:10 | 50.71513 | 7.85487 | 15816 ft | 372 kts | 129° |
| 2026-04-26 09:10 | 50.69877 | 7.88664 | 16458 ft | 374 kts | 129° |
| 2026-04-26 09:10 | 50.68249 | 7.91827 | 17079 ft | 377 kts | 129° |
| 2026-04-26 09:10 | 50.66589 | 7.95055 | 17701 ft | 380 kts | 129° |
| 2026-04-26 09:11 | 50.64915 | 7.98309 | 18280 ft | 385 kts | 129° |
| 2026-04-26 09:11 | 50.63224 | 8.01595 | 18862 ft | 388 kts | 129° |
| 2026-04-26 09:11 | 50.61520 | 8.04908 | 19423 ft | 390 kts | 129° |
| 2026-04-26 09:11 | 50.59801 | 8.08247 | 19946 ft | 393 kts | 129° |
| 2026-04-26 09:12 | 50.58071 | 8.11597 | 20512 ft | 395 kts | 130° |
| 2026-04-26 09:12 | 50.56326 | 8.14965 | 21041 ft | 398 kts | 130° |
| 2026-04-26 09:12 | 50.54570 | 8.18354 | 21582 ft | 401 kts | 130° |
| 2026-04-26 09:12 | 50.52801 | 8.21766 | 22115 ft | 404 kts | 130° |
| 2026-04-26 09:13 | 50.51021 | 8.25198 | 22641 ft | 407 kts | 130° |
| 2026-04-26 09:13 | 50.49225 | 8.28659 | 23149 ft | 410 kts | 130° |
| 2026-04-26 09:13 | 50.47416 | 8.32136 | 23650 ft | 413 kts | 130° |
| 2026-04-26 09:13 | 50.45586 | 8.35649 | 24097 ft | 415 kts | 130° |
| 2026-04-26 09:14 | 50.43749 | 8.39164 | 24483 ft | 419 kts | 130° |
| 2026-04-26 09:14 | 50.41896 | 8.42705 | 24885 ft | 421 kts | 130° |
| 2026-04-26 09:14 | 50.40035 | 8.46264 | 25279 ft | 423 kts | 130° |
| 2026-04-26 09:14 | 50.38166 | 8.49838 | 25672 ft | 425 kts | 130° |
| 2026-04-26 09:15 | 50.36285 | 8.53430 | 26070 ft | 427 kts | 131° |
| 2026-04-26 09:15 | 50.34391 | 8.57037 | 26448 ft | 429 kts | 131° |
| 2026-04-26 09:15 | 50.32489 | 8.60646 | 26805 ft | 431 kts | 131° |
| 2026-04-26 09:15 | 50.30581 | 8.64264 | 27180 ft | 432 kts | 131° |
| 2026-04-26 09:16 | 50.28663 | 8.67902 | 27533 ft | 434 kts | 131° |
| 2026-04-26 09:16 | 50.26742 | 8.71552 | 27893 ft | 436 kts | 131° |
| 2026-04-26 09:16 | 50.24807 | 8.75214 | 28244 ft | 438 kts | 131° |
| 2026-04-26 09:16 | 50.22859 | 8.78890 | 28589 ft | 440 kts | 131° |
| 2026-04-26 09:17 | 50.20927 | 8.82524 | 28913 ft | 442 kts | 131° |
| 2026-04-26 09:17 | 50.18960 | 8.86219 | 29241 ft | 444 kts | 132° |
| 2026-04-26 09:17 | 50.16984 | 8.89932 | 29562 ft | 445 kts | 132° |
| 2026-04-26 09:17 | 50.15004 | 8.93655 | 29874 ft | 447 kts | 132° |
| 2026-04-26 09:18 | 50.13012 | 8.97399 | 30182 ft | 449 kts | 132° |
| 2026-04-26 09:18 | 50.11013 | 9.01142 | 30446 ft | 450 kts | 132° |
| 2026-04-26 09:18 | 50.09002 | 9.04897 | 30679 ft | 452 kts | 132° |
| 2026-04-26 09:18 | 50.06982 | 9.08661 | 30910 ft | 454 kts | 132° |
| 2026-04-26 09:19 | 50.04949 | 9.12443 | 31110 ft | 456 kts | 132° |
| 2026-04-26 09:19 | 50.02909 | 9.16233 | 31292 ft | 458 kts | 133° |
| 2026-04-26 09:19 | 50.00857 | 9.20044 | 31460 ft | 461 kts | 132° |
| 2026-04-26 09:19 | 49.98801 | 9.23863 | 31738 ft | 461 kts | 132° |
| 2026-04-26 09:20 | 49.96749 | 9.27676 | 32041 ft | 460 kts | 132° |
| 2026-04-26 09:20 | 49.94694 | 9.31485 | 32340 ft | 459 kts | 133° |
| 2026-04-26 09:20 | 49.92643 | 9.35276 | 32637 ft | 458 kts | 133° |
| 2026-04-26 09:20 | 49.90592 | 9.39060 | 32931 ft | 458 kts | 133° |
| 2026-04-26 09:21 | 49.88544 | 9.42833 | 33227 ft | 457 kts | 133° |
| 2026-04-26 09:21 | 49.86495 | 9.46605 | 33521 ft | 457 kts | 133° |
| 2026-04-26 09:21 | 49.84448 | 9.50366 | 33818 ft | 456 kts | 133° |
| 2026-04-26 09:21 | 49.82382 | 9.54086 | 34117 ft | 455 kts | 136° |
| 2026-04-26 09:22 | 49.80113 | 9.57479 | 34390 ft | 452 kts | 140° |
| 2026-04-26 09:22 | 49.77806 | 9.60818 | 34609 ft | 453 kts | 140° |
| 2026-04-26 09:22 | 49.75503 | 9.64147 | 34839 ft | 453 kts | 140° |
| 2026-04-26 09:22 | 49.73201 | 9.67476 | 35040 ft | 453 kts | 140° |
| 2026-04-26 09:23 | 49.70900 | 9.70814 | 35223 ft | 454 kts | 139° |
| 2026-04-26 09:23 | 49.66321 | 9.77450 | 35279 ft | 449 kts | 140° |
| 2026-04-26 09:24 | 49.61786 | 9.83989 | 35274 ft | 448 kts | 140° |
| 2026-04-26 09:24 | 49.57222 | 9.90548 | 35275 ft | 448 kts | 140° |
| 2026-04-26 09:25 | 49.52649 | 9.97088 | 35267 ft | 449 kts | 140° |
| 2026-04-26 09:25 | 49.48059 | 10.03640 | 35274 ft | 450 kts | 140° |
| 2026-04-26 09:26 | 49.43470 | 10.10184 | 35272 ft | 450 kts | 140° |
| 2026-04-26 09:26 | 49.38897 | 10.16755 | 35271 ft | 450 kts | 138° |
| 2026-04-26 09:27 | 49.34534 | 10.23681 | 35273 ft | 452 kts | 135° |
| 2026-04-26 09:27 | 49.30298 | 10.30799 | 35271 ft | 452 kts | 135° |
| 2026-04-26 09:28 | 49.26028 | 10.37869 | 35274 ft | 452 kts | 135° |
| 2026-04-26 09:28 | 49.21710 | 10.44856 | 35277 ft | 452 kts | 136° |
| 2026-04-26 09:29 | 49.17365 | 10.51820 | 35291 ft | 452 kts | 136° |
| 2026-04-26 09:29 | 49.13046 | 10.58747 | 35296 ft | 453 kts | 136° |
| 2026-04-26 09:30 | 49.08702 | 10.65698 | 35288 ft | 453 kts | 136° |
| 2026-04-26 09:30 | 49.04348 | 10.72659 | 35295 ft | 452 kts | 136° |
| 2026-04-26 09:31 | 49.00006 | 10.79608 | 35277 ft | 453 kts | 136° |
| 2026-04-26 09:31 | 48.96392 | 10.85366 | 35280 ft | 453 kts | 136° |
| 2026-04-26 09:32 | 48.92022 | 10.92294 | 35281 ft | 453 kts | 136° |
| 2026-04-26 09:32 | 48.87654 | 10.99189 | 35274 ft | 453 kts | 136° |
| 2026-04-26 09:33 | 48.83288 | 11.06072 | 35272 ft | 452 kts | 136° |
| 2026-04-26 09:33 | 48.78929 | 11.12952 | 35270 ft | 452 kts | 136° |
| 2026-04-26 09:34 | 48.74560 | 11.19813 | 35261 ft | 452 kts | 136° |
| 2026-04-26 09:34 | 48.70183 | 11.26654 | 35257 ft | 452 kts | 136° |
| 2026-04-26 09:35 | 48.65807 | 11.33491 | 35256 ft | 452 kts | 136° |
| 2026-04-26 09:35 | 48.61449 | 11.40272 | 35259 ft | 452 kts | 136° |
| 2026-04-26 09:36 | 48.57056 | 11.47079 | 35255 ft | 452 kts | 136° |
| 2026-04-26 09:36 | 48.52662 | 11.53887 | 35259 ft | 453 kts | 136° |
| 2026-04-26 09:37 | 48.48264 | 11.60686 | 35249 ft | 453 kts | 136° |
| 2026-04-26 09:37 | 48.43862 | 11.67480 | 35253 ft | 453 kts | 136° |
| 2026-04-26 09:38 | 48.39448 | 11.74265 | 35258 ft | 454 kts | 136° |
| 2026-04-26 09:38 | 48.35018 | 11.81049 | 35257 ft | 454 kts | 136° |
| 2026-04-26 09:39 | 48.30592 | 11.87822 | 35267 ft | 454 kts | 136° |
| 2026-04-26 09:39 | 48.26157 | 11.94596 | 35264 ft | 455 kts | 136° |
| 2026-04-26 09:40 | 48.21708 | 12.01347 | 35257 ft | 455 kts | 136° |
| 2026-04-26 09:40 | 48.17279 | 12.08057 | 35260 ft | 455 kts | 136° |
| 2026-04-26 09:41 | 48.12832 | 12.14801 | 35257 ft | 455 kts | 136° |
| 2026-04-26 09:41 | 48.08381 | 12.21525 | 35250 ft | 455 kts | 136° |
| 2026-04-26 09:42 | 48.03889 | 12.28278 | 35251 ft | 455 kts | 136° |
| 2026-04-26 09:42 | 47.99451 | 12.34924 | 35253 ft | 455 kts | 136° |
| 2026-04-26 09:43 | 47.94979 | 12.41612 | 35236 ft | 455 kts | 136° |
| 2026-04-26 09:43 | 47.90510 | 12.48296 | 35235 ft | 455 kts | 136° |
| 2026-04-26 09:44 | 47.86038 | 12.54968 | 35234 ft | 455 kts | 136° |
| 2026-04-26 09:44 | 47.81556 | 12.61617 | 35233 ft | 455 kts | 136° |
| 2026-04-26 09:45 | 47.77075 | 12.68257 | 35238 ft | 455 kts | 136° |
| 2026-04-26 09:45 | 47.72584 | 12.74907 | 35235 ft | 455 kts | 136° |
| 2026-04-26 09:46 | 47.68083 | 12.81536 | 35234 ft | 456 kts | 136° |
| 2026-04-26 09:46 | 47.63579 | 12.88151 | 35228 ft | 456 kts | 136° |
| 2026-04-26 09:47 | 47.59069 | 12.94757 | 35228 ft | 456 kts | 136° |
| 2026-04-26 09:47 | 47.54560 | 13.01352 | 35221 ft | 456 kts | 136° |
| 2026-04-26 09:48 | 47.50048 | 13.07941 | 35215 ft | 456 kts | 136° |
| 2026-04-26 09:48 | 47.45528 | 13.14519 | 35196 ft | 456 kts | 136° |
| 2026-04-26 09:49 | 47.41004 | 13.21089 | 35192 ft | 456 kts | 136° |
| 2026-04-26 09:49 | 47.36498 | 13.27614 | 35191 ft | 457 kts | 136° |
| 2026-04-26 09:50 | 47.31957 | 13.34172 | 35197 ft | 457 kts | 136° |
| 2026-04-26 09:50 | 47.27480 | 13.40851 | 35203 ft | 458 kts | 135° |
| 2026-04-26 09:51 | 47.23058 | 13.47591 | 35199 ft | 458 kts | 135° |
| 2026-04-26 09:51 | 47.18623 | 13.54306 | 35179 ft | 458 kts | 135° |
| 2026-04-26 09:52 | 47.14188 | 13.60974 | 35175 ft | 459 kts | 136° |
| 2026-04-26 09:52 | 47.07468 | 13.71002 | 35190 ft | 459 kts | 136° |
| 2026-04-26 09:53 | 47.02988 | 13.77657 | 35188 ft | 458 kts | 136° |
| 2026-04-26 09:53 | 46.98517 | 13.84287 | 35195 ft | 457 kts | 136° |
| 2026-04-26 09:54 | 46.94050 | 13.90902 | 35167 ft | 457 kts | 135° |
| 2026-04-26 09:54 | 46.89590 | 13.97496 | 35177 ft | 455 kts | 135° |
| 2026-04-26 09:55 | 46.85133 | 14.04069 | 35167 ft | 455 kts | 135° |
| 2026-04-26 09:55 | 46.80676 | 14.10621 | 35172 ft | 454 kts | 135° |
| 2026-04-26 09:56 | 46.76219 | 14.17161 | 35166 ft | 454 kts | 135° |
| 2026-04-26 09:56 | 46.71755 | 14.23678 | 35166 ft | 454 kts | 135° |
| 2026-04-26 09:57 | 46.67292 | 14.30186 | 35157 ft | 454 kts | 135° |
| 2026-04-26 09:57 | 46.62825 | 14.36689 | 35160 ft | 454 kts | 135° |
| 2026-04-26 09:58 | 46.58380 | 14.43143 | 35159 ft | 454 kts | 135° |
| 2026-04-26 09:58 | 46.53902 | 14.49624 | 35156 ft | 454 kts | 135° |
| 2026-04-26 09:59 | 46.49418 | 14.56098 | 35148 ft | 454 kts | 135° |
| 2026-04-26 09:59 | 46.44931 | 14.62578 | 35148 ft | 455 kts | 135° |
| 2026-04-26 10:00 | 46.40688 | 14.69370 | 35128 ft | 455 kts | 130° |
| 2026-04-26 10:00 | 46.36667 | 14.76459 | 35126 ft | 455 kts | 129° |
| 2026-04-26 10:01 | 46.32638 | 14.83524 | 35126 ft | 455 kts | 130° |
| 2026-04-26 10:01 | 46.28532 | 14.90494 | 35127 ft | 455 kts | 131° |
| 2026-04-26 10:02 | 46.24392 | 14.97418 | 35132 ft | 455 kts | 131° |
| 2026-04-26 10:02 | 46.20274 | 15.04307 | 35128 ft | 455 kts | 131° |
| 2026-04-26 10:03 | 46.16145 | 15.11236 | 35119 ft | 456 kts | 131° |
| 2026-04-26 10:03 | 46.12007 | 15.18173 | 35122 ft | 456 kts | 131° |
| 2026-04-26 10:04 | 46.07866 | 15.25096 | 35123 ft | 456 kts | 131° |
| 2026-04-26 10:04 | 46.03712 | 15.32010 | 35127 ft | 457 kts | 131° |
| 2026-04-26 10:05 | 45.99544 | 15.38917 | 35124 ft | 457 kts | 131° |
| 2026-04-26 10:05 | 45.95376 | 15.45826 | 35127 ft | 457 kts | 131° |
| 2026-04-26 10:06 | 45.91218 | 15.52701 | 35130 ft | 457 kts | 131° |
| 2026-04-26 10:06 | 45.87036 | 15.59604 | 35122 ft | 458 kts | 131° |
| 2026-04-26 10:07 | 45.82843 | 15.66491 | 35124 ft | 458 kts | 131° |
| 2026-04-26 10:07 | 45.78649 | 15.73366 | 35129 ft | 458 kts | 131° |
| 2026-04-26 10:08 | 45.74480 | 15.80186 | 35130 ft | 458 kts | 131° |
| 2026-04-26 10:08 | 45.70273 | 15.87049 | 35139 ft | 458 kts | 131° |
| 2026-04-26 10:09 | 45.66072 | 15.93903 | 35136 ft | 458 kts | 131° |
| 2026-04-26 10:09 | 45.61862 | 16.00743 | 35141 ft | 458 kts | 131° |
| 2026-04-26 10:10 | 45.57647 | 16.07571 | 35138 ft | 458 kts | 131° |
| 2026-04-26 10:10 | 45.53423 | 16.14390 | 35144 ft | 458 kts | 131° |
| 2026-04-26 10:11 | 45.49198 | 16.21192 | 35144 ft | 458 kts | 131° |
| 2026-04-26 10:11 | 45.44976 | 16.27992 | 35145 ft | 458 kts | 131° |
| 2026-04-26 10:12 | 45.40744 | 16.34791 | 35150 ft | 458 kts | 132° |
| 2026-04-26 10:12 | 45.36539 | 16.41518 | 35137 ft | 458 kts | 131° |
| 2026-04-26 10:13 | 45.32300 | 16.48283 | 35146 ft | 458 kts | 132° |
| 2026-04-26 10:13 | 45.28060 | 16.55033 | 35145 ft | 458 kts | 132° |
| 2026-04-26 10:14 | 45.23823 | 16.61772 | 35144 ft | 458 kts | 132° |
| 2026-04-26 10:14 | 45.19571 | 16.68502 | 35145 ft | 458 kts | 132° |
| 2026-04-26 10:15 | 45.15368 | 16.75281 | 35145 ft | 458 kts | 131° |
| 2026-04-26 10:15 | 45.11232 | 16.82054 | 35131 ft | 458 kts | 131° |
| 2026-04-26 10:16 | 45.07061 | 16.88857 | 35138 ft | 457 kts | 131° |
| 2026-04-26 10:16 | 45.02873 | 16.95638 | 35134 ft | 457 kts | 131° |
| 2026-04-26 10:17 | 44.98674 | 17.02396 | 35135 ft | 457 kts | 131° |
| 2026-04-26 10:17 | 44.94407 | 17.09068 | 35140 ft | 457 kts | 134° |
| 2026-04-26 10:18 | 44.89910 | 17.15408 | 35138 ft | 457 kts | 136° |
| 2026-04-26 10:18 | 44.86107 | 17.20582 | 35141 ft | 457 kts | 136° |
| 2026-04-26 10:19 | 44.81570 | 17.26846 | 35133 ft | 457 kts | 136° |
| 2026-04-26 10:19 | 44.77068 | 17.33164 | 35136 ft | 457 kts | 135° |
| 2026-04-26 10:20 | 44.72568 | 17.39478 | 35134 ft | 457 kts | 136° |
| 2026-04-26 10:20 | 44.68059 | 17.45767 | 35136 ft | 457 kts | 136° |
| 2026-04-26 10:21 | 44.63539 | 17.52045 | 35141 ft | 457 kts | 136° |
| 2026-04-26 10:21 | 44.59035 | 17.58284 | 35125 ft | 457 kts | 136° |
| 2026-04-26 10:22 | 44.54506 | 17.64551 | 35133 ft | 457 kts | 136° |
| 2026-04-26 10:22 | 44.49965 | 17.70817 | 35135 ft | 458 kts | 136° |
| 2026-04-26 10:23 | 44.45422 | 17.77067 | 35133 ft | 458 kts | 136° |
| 2026-04-26 10:23 | 44.40869 | 17.83317 | 35137 ft | 458 kts | 136° |
| 2026-04-26 10:24 | 44.36307 | 17.89579 | 35140 ft | 459 kts | 136° |
| 2026-04-26 10:24 | 44.31749 | 17.95810 | 35135 ft | 459 kts | 136° |
| 2026-04-26 10:25 | 44.27176 | 18.02041 | 35134 ft | 459 kts | 136° |
| 2026-04-26 10:25 | 44.22609 | 18.08259 | 35139 ft | 459 kts | 136° |
| 2026-04-26 10:26 | 44.18059 | 18.14433 | 35141 ft | 459 kts | 137° |
| 2026-04-26 10:26 | 44.13473 | 18.20643 | 35135 ft | 459 kts | 137° |
| 2026-04-26 10:27 | 44.08887 | 18.26843 | 35117 ft | 459 kts | 137° |
| 2026-04-26 10:27 | 44.04335 | 18.32991 | 35131 ft | 459 kts | 137° |
| 2026-04-26 10:28 | 43.99747 | 18.39161 | 35130 ft | 459 kts | 137° |
| 2026-04-26 10:28 | 43.95159 | 18.45321 | 35132 ft | 459 kts | 137° |
| 2026-04-26 10:29 | 43.90560 | 18.51474 | 35138 ft | 459 kts | 137° |
| 2026-04-26 10:29 | 43.85961 | 18.57616 | 35138 ft | 459 kts | 137° |
| 2026-04-26 10:30 | 43.81364 | 18.63749 | 35131 ft | 458 kts | 137° |
| 2026-04-26 10:30 | 43.76764 | 18.69874 | 35129 ft | 459 kts | 137° |
| 2026-04-26 10:31 | 43.72219 | 18.75912 | 35114 ft | 460 kts | 137° |
| 2026-04-26 10:31 | 43.67541 | 18.82104 | 35117 ft | 460 kts | 137° |
| 2026-04-26 10:32 | 43.62951 | 18.88177 | 35115 ft | 460 kts | 137° |
| 2026-04-26 10:32 | 43.58328 | 18.94281 | 35102 ft | 460 kts | 137° |
| 2026-04-26 10:33 | 43.53683 | 19.00379 | 35096 ft | 461 kts | 138° |
| 2026-04-26 10:33 | 43.49035 | 19.06471 | 35103 ft | 461 kts | 138° |
| 2026-04-26 10:34 | 43.44390 | 19.12552 | 35092 ft | 461 kts | 138° |
| 2026-04-26 10:34 | 43.39740 | 19.18639 | 35097 ft | 461 kts | 138° |
| 2026-04-26 10:35 | 43.35078 | 19.24719 | 35100 ft | 462 kts | 138° |
| 2026-04-26 10:35 | 43.30439 | 19.30754 | 35083 ft | 463 kts | 138° |
| 2026-04-26 10:36 | 43.25758 | 19.36822 | 35087 ft | 463 kts | 138° |
| 2026-04-26 10:36 | 43.21075 | 19.42895 | 35097 ft | 463 kts | 138° |
| 2026-04-26 10:37 | 43.16354 | 19.49000 | 35096 ft | 464 kts | 138° |
| 2026-04-26 10:37 | 43.11672 | 19.55032 | 35093 ft | 464 kts | 138° |
| 2026-04-26 10:38 | 43.06964 | 19.61089 | 35096 ft | 465 kts | 138° |
| 2026-04-26 10:38 | 43.02253 | 19.67150 | 35095 ft | 465 kts | 138° |
| 2026-04-26 10:39 | 42.97523 | 19.73213 | 35098 ft | 465 kts | 139° |
| 2026-04-26 10:39 | 42.92816 | 19.79217 | 35085 ft | 465 kts | 139° |
| 2026-04-26 10:40 | 42.88082 | 19.85246 | 35091 ft | 466 kts | 139° |
| 2026-04-26 10:40 | 42.83344 | 19.91278 | 35088 ft | 466 kts | 139° |
| 2026-04-26 10:41 | 42.78590 | 19.97310 | 35089 ft | 467 kts | 139° |
| 2026-04-26 10:41 | 42.73950 | 20.03493 | 35087 ft | 468 kts | 131° |
| 2026-04-26 10:42 | 42.69821 | 20.10350 | 35095 ft | 469 kts | 130° |
| 2026-04-26 10:42 | 42.65672 | 20.17200 | 35090 ft | 469 kts | 131° |
| 2026-04-26 10:43 | 42.61537 | 20.23988 | 35086 ft | 470 kts | 131° |
| 2026-04-26 10:43 | 42.57373 | 20.30820 | 35071 ft | 469 kts | 131° |
| 2026-04-26 10:44 | 42.53214 | 20.37644 | 35071 ft | 469 kts | 131° |
| 2026-04-26 10:44 | 42.49045 | 20.44462 | 35074 ft | 470 kts | 131° |
| 2026-04-26 10:45 | 42.44865 | 20.51274 | 35079 ft | 470 kts | 131° |
| 2026-04-26 10:45 | 42.40685 | 20.58089 | 35078 ft | 471 kts | 131° |
| 2026-04-26 10:46 | 42.36496 | 20.64898 | 35080 ft | 471 kts | 131° |
| 2026-04-26 10:46 | 42.32289 | 20.71700 | 35082 ft | 471 kts | 131° |
| 2026-04-26 10:47 | 42.28086 | 20.78486 | 35081 ft | 471 kts | 131° |
| 2026-04-26 10:47 | 42.23884 | 20.85267 | 35090 ft | 471 kts | 131° |
| 2026-04-26 10:48 | 42.19699 | 20.91996 | 35084 ft | 471 kts | 131° |
| 2026-04-26 10:48 | 42.15486 | 20.98757 | 35087 ft | 471 kts | 131° |
| 2026-04-26 10:49 | 42.11243 | 21.05493 | 35079 ft | 470 kts | 135° |
| 2026-04-26 10:49 | 42.06535 | 21.11565 | 35076 ft | 468 kts | 139° |
| 2026-04-26 10:50 | 42.02590 | 21.16563 | 35059 ft | 469 kts | 139° |
| 2026-04-26 10:50 | 41.97038 | 21.23578 | 35056 ft | 469 kts | 139° |
| 2026-04-26 10:51 | 41.89933 | 21.32555 | 35086 ft | 472 kts | 139° |
| 2026-04-26 10:51 | 41.87521 | 21.35558 | 35260 ft | 473 kts | 140° |
| 2026-04-26 10:52 | 41.85072 | 21.38510 | 35501 ft | 473 kts | 141° |
| 2026-04-26 10:52 | 41.82599 | 21.41426 | 35761 ft | 473 kts | 141° |
| 2026-04-26 10:52 | 41.80123 | 21.44315 | 36012 ft | 472 kts | 141° |
| 2026-04-26 10:52 | 41.77647 | 21.47203 | 36246 ft | 471 kts | 141° |
| 2026-04-26 10:53 | 41.75184 | 21.50090 | 36503 ft | 470 kts | 141° |
| 2026-04-26 10:53 | 41.72734 | 21.52975 | 36752 ft | 468 kts | 141° |
| 2026-04-26 10:53 | 41.70295 | 21.55856 | 36968 ft | 467 kts | 140° |
| 2026-04-26 10:54 | 41.62982 | 21.64493 | 37065 ft | 467 kts | 141° |
| 2026-04-26 10:54 | 41.58101 | 21.70228 | 37062 ft | 467 kts | 141° |
| 2026-04-26 10:55 | 41.53219 | 21.75952 | 37062 ft | 467 kts | 141° |
| 2026-04-26 10:55 | 41.49163 | 21.80707 | 37056 ft | 467 kts | 140° |
| 2026-04-26 10:56 | 41.43448 | 21.87382 | 37056 ft | 467 kts | 141° |
| 2026-04-26 10:56 | 41.38553 | 21.93083 | 37059 ft | 468 kts | 141° |
| 2026-04-26 10:57 | 41.33681 | 21.98741 | 37056 ft | 468 kts | 141° |
| 2026-04-26 10:57 | 41.28772 | 22.04423 | 37056 ft | 468 kts | 141° |
| 2026-04-26 10:58 | 41.23866 | 22.10118 | 37044 ft | 468 kts | 141° |
| 2026-04-26 10:58 | 41.18957 | 22.15803 | 37048 ft | 468 kts | 141° |
| 2026-04-26 10:59 | 41.14043 | 22.21459 | 37041 ft | 467 kts | 141° |
| 2026-04-26 10:59 | 41.09132 | 22.27109 | 37043 ft | 467 kts | 141° |
| 2026-04-26 11:00 | 41.04216 | 22.32747 | 37025 ft | 467 kts | 141° |
| 2026-04-26 11:00 | 40.99293 | 22.38385 | 37012 ft | 467 kts | 141° |
| 2026-04-26 11:01 | 40.94378 | 22.44023 | 37021 ft | 467 kts | 141° |
| 2026-04-26 11:01 | 40.89444 | 22.49654 | 37023 ft | 467 kts | 141° |
| 2026-04-26 11:02 | 40.84544 | 22.55226 | 37024 ft | 467 kts | 141° |
| 2026-04-26 11:02 | 40.79621 | 22.60818 | 37018 ft | 467 kts | 141° |
| 2026-04-26 11:03 | 40.74685 | 22.66421 | 37020 ft | 467 kts | 141° |
| 2026-04-26 11:03 | 40.69749 | 22.72011 | 37019 ft | 467 kts | 141° |
| 2026-04-26 11:04 | 40.64857 | 22.77537 | 37028 ft | 466 kts | 141° |
| 2026-04-26 11:04 | 40.59928 | 22.83093 | 37037 ft | 466 kts | 140° |
| 2026-04-26 11:05 | 40.54998 | 22.88641 | 37038 ft | 466 kts | 140° |
| 2026-04-26 11:05 | 40.50062 | 22.94182 | 37038 ft | 467 kts | 140° |
| 2026-04-26 11:06 | 40.45933 | 22.98839 | 37037 ft | 467 kts | 137° |
| 2026-04-26 11:06 | 40.41437 | 23.04995 | 37030 ft | 467 kts | 134° |
| 2026-04-26 11:07 | 40.36996 | 23.11137 | 37038 ft | 467 kts | 134° |
| 2026-04-26 11:07 | 40.32511 | 23.17313 | 37030 ft | 467 kts | 134° |
| 2026-04-26 11:08 | 40.28028 | 23.23482 | 37031 ft | 467 kts | 134° |
| 2026-04-26 11:08 | 40.23540 | 23.29644 | 37031 ft | 468 kts | 134° |
| 2026-04-26 11:09 | 40.19047 | 23.35802 | 37030 ft | 468 kts | 134° |
| 2026-04-26 11:09 | 40.14564 | 23.41952 | 37036 ft | 467 kts | 134° |
| 2026-04-26 11:10 | 40.10073 | 23.48079 | 37046 ft | 466 kts | 134° |
| 2026-04-26 11:10 | 40.05580 | 23.54197 | 37052 ft | 466 kts | 134° |
| 2026-04-26 11:11 | 40.01096 | 23.60310 | 37052 ft | 466 kts | 134° |
| 2026-04-26 11:11 | 39.96610 | 23.66409 | 37053 ft | 465 kts | 134° |
| 2026-04-26 11:12 | 39.92118 | 23.72489 | 37054 ft | 465 kts | 134° |
| 2026-04-26 11:12 | 39.87626 | 23.78562 | 37062 ft | 465 kts | 133° |
| 2026-04-26 11:13 | 39.83139 | 23.84616 | 37061 ft | 464 kts | 133° |
| 2026-04-26 11:13 | 39.78659 | 23.90659 | 37060 ft | 464 kts | 133° |
| 2026-04-26 11:14 | 39.74197 | 23.96655 | 37058 ft | 464 kts | 133° |
| 2026-04-26 11:14 | 39.69705 | 24.02668 | 37057 ft | 464 kts | 134° |
| 2026-04-26 11:15 | 39.65216 | 24.08670 | 37061 ft | 463 kts | 133° |
| 2026-04-26 11:15 | 39.60726 | 24.14675 | 37058 ft | 463 kts | 133° |
| 2026-04-26 11:16 | 39.56239 | 24.20662 | 37060 ft | 463 kts | 133° |
| 2026-04-26 11:16 | 39.51747 | 24.26637 | 37062 ft | 462 kts | 133° |
| 2026-04-26 11:17 | 39.47259 | 24.32597 | 37061 ft | 462 kts | 133° |
| 2026-04-26 11:17 | 39.42763 | 24.38552 | 37060 ft | 462 kts | 133° |
| 2026-04-26 11:18 | 39.38271 | 24.44489 | 37065 ft | 461 kts | 133° |
| 2026-04-26 11:18 | 39.33815 | 24.50383 | 37066 ft | 461 kts | 133° |
| 2026-04-26 11:19 | 39.29355 | 24.56325 | 37065 ft | 460 kts | 132° |
| 2026-04-26 11:19 | 39.24913 | 24.62276 | 37066 ft | 460 kts | 132° |
| 2026-04-26 11:20 | 39.21194 | 24.67255 | 37062 ft | 460 kts | 133° |
| 2026-04-26 11:20 | 39.16027 | 24.74136 | 37060 ft | 459 kts | 133° |
| 2026-04-26 11:21 | 39.11575 | 24.80042 | 37059 ft | 459 kts | 133° |
| 2026-04-26 11:21 | 39.07106 | 24.85921 | 37056 ft | 459 kts | 133° |
| 2026-04-26 11:22 | 39.02598 | 24.91750 | 37056 ft | 459 kts | 134° |
| 2026-04-26 11:22 | 38.98082 | 24.97562 | 37056 ft | 459 kts | 133° |
| 2026-04-26 11:23 | 38.93578 | 25.03375 | 37067 ft | 459 kts | 133° |
| 2026-04-26 11:23 | 38.89081 | 25.09195 | 37062 ft | 459 kts | 133° |
| 2026-04-26 11:24 | 38.84581 | 25.15002 | 37059 ft | 458 kts | 133° |
| 2026-04-26 11:24 | 38.80082 | 25.20795 | 37056 ft | 458 kts | 133° |
| 2026-04-26 11:25 | 38.75578 | 25.26576 | 37054 ft | 458 kts | 133° |
| 2026-04-26 11:25 | 38.71066 | 25.32343 | 37054 ft | 458 kts | 133° |
| 2026-04-26 11:26 | 38.66553 | 25.38105 | 37064 ft | 458 kts | 133° |
| 2026-04-26 11:26 | 38.62039 | 25.43859 | 37055 ft | 458 kts | 133° |
| 2026-04-26 11:27 | 38.57560 | 25.49567 | 37052 ft | 458 kts | 133° |
| 2026-04-26 11:27 | 38.53041 | 25.55310 | 37047 ft | 458 kts | 133° |
| 2026-04-26 11:28 | 38.48524 | 25.61049 | 37047 ft | 458 kts | 133° |
| 2026-04-26 11:28 | 38.44000 | 25.66773 | 37048 ft | 458 kts | 133° |
| 2026-04-26 11:29 | 38.39478 | 25.72487 | 37046 ft | 458 kts | 133° |
| 2026-04-26 11:29 | 38.34951 | 25.78188 | 37031 ft | 458 kts | 133° |
| 2026-04-26 11:30 | 38.31195 | 25.82939 | 37018 ft | 458 kts | 132° |
| 2026-04-26 11:30 | 38.25742 | 25.89320 | 37013 ft | 461 kts | 143° |
| 2026-04-26 11:31 | 38.19990 | 25.92940 | 37012 ft | 464 kts | 159° |
| 2026-04-26 11:31 | 38.13900 | 25.95689 | 37031 ft | 464 kts | 159° |
| 2026-04-26 11:32 | 38.07819 | 25.98462 | 37022 ft | 465 kts | 158° |
| 2026-04-26 11:32 | 38.01730 | 26.01243 | 37018 ft | 465 kts | 159° |
| 2026-04-26 11:33 | 37.95652 | 26.04009 | 36342 ft | 464 kts | 158° |
| 2026-04-26 11:33 | 37.92614 | 26.05387 | 35613 ft | 464 kts | 158° |
| 2026-04-26 11:33 | 37.89563 | 26.06771 | 34890 ft | 466 kts | 158° |
| 2026-04-26 11:34 | 37.86514 | 26.08153 | 34290 ft | 464 kts | 157° |
| 2026-04-26 11:34 | 37.83487 | 26.09520 | 33760 ft | 460 kts | 157° |
| 2026-04-26 11:34 | 37.80487 | 26.10870 | 33179 ft | 456 kts | 157° |
| 2026-04-26 11:34 | 37.77509 | 26.12207 | 32625 ft | 452 kts | 157° |
| 2026-04-26 11:35 | 37.74555 | 26.13536 | 32083 ft | 449 kts | 157° |
| 2026-04-26 11:35 | 37.71625 | 26.14858 | 31554 ft | 445 kts | 156° |
| 2026-04-26 11:35 | 37.68722 | 26.16171 | 31038 ft | 442 kts | 156° |
| 2026-04-26 11:35 | 37.66806 | 26.17037 | 30707 ft | 440 kts | 156° |
| 2026-04-26 11:36 | 37.63008 | 26.18749 | 30052 ft | 436 kts | 156° |
| 2026-04-26 11:36 | 37.60156 | 26.20028 | 29505 ft | 432 kts | 157° |
| 2026-04-26 11:36 | 37.57335 | 26.21289 | 29000 ft | 429 kts | 157° |
| 2026-04-26 11:36 | 37.54536 | 26.22542 | 28471 ft | 425 kts | 157° |
| 2026-04-26 11:37 | 37.51765 | 26.23781 | 27985 ft | 421 kts | 157° |
| 2026-04-26 11:37 | 37.49020 | 26.25008 | 27507 ft | 417 kts | 157° |
| 2026-04-26 11:37 | 37.46293 | 26.26223 | 27042 ft | 413 kts | 157° |
| 2026-04-26 11:37 | 37.43595 | 26.27424 | 26607 ft | 409 kts | 157° |
| 2026-04-26 11:38 | 37.40927 | 26.28616 | 26189 ft | 405 kts | 157° |
| 2026-04-26 11:38 | 37.38281 | 26.29800 | 25751 ft | 402 kts | 157° |
| 2026-04-26 11:38 | 37.35657 | 26.30972 | 25312 ft | 398 kts | 157° |
| 2026-04-26 11:38 | 37.33057 | 26.32132 | 24873 ft | 395 kts | 157° |
| 2026-04-26 11:39 | 37.30469 | 26.33285 | 24431 ft | 392 kts | 157° |
| 2026-04-26 11:39 | 37.27937 | 26.34411 | 24004 ft | 389 kts | 157° |
| 2026-04-26 11:39 | 37.25395 | 26.35540 | 23576 ft | 386 kts | 157° |
| 2026-04-26 11:39 | 37.23010 | 26.36984 | 23091 ft | 378 kts | 144° |
| 2026-04-26 11:40 | 37.20793 | 26.38747 | 22590 ft | 375 kts | 144° |
| 2026-04-26 11:40 | 37.18603 | 26.40500 | 22111 ft | 372 kts | 144° |
| 2026-04-26 11:40 | 37.16425 | 26.42243 | 21668 ft | 369 kts | 144° |
| 2026-04-26 11:40 | 37.14271 | 26.43968 | 21226 ft | 366 kts | 144° |
| 2026-04-26 11:41 | 37.12131 | 26.45684 | 20788 ft | 364 kts | 144° |
| 2026-04-26 11:42 | 36.97569 | 26.57300 | 17947 ft | 345 kts | 146° |
| 2026-04-26 11:43 | 36.95551 | 26.58908 | 17544 ft | 342 kts | 146° |
| 2026-04-26 11:43 | 36.93560 | 26.60494 | 16970 ft | 337 kts | 146° |
| 2026-04-26 11:43 | 36.91594 | 26.62058 | 16220 ft | 333 kts | 146° |
| 2026-04-26 11:43 | 36.89645 | 26.63603 | 15516 ft | 329 kts | 144° |
| 2026-04-26 11:44 | 36.87722 | 26.65125 | 14827 ft | 325 kts | 145° |
| 2026-04-26 11:44 | 36.85822 | 26.66626 | 14154 ft | 321 kts | 144° |
| 2026-04-26 11:44 | 36.83952 | 26.68120 | 13468 ft | 316 kts | 142° |
| 2026-04-26 11:44 | 36.82294 | 26.69867 | 12746 ft | 309 kts | 131° |
| 2026-04-26 11:45 | 36.80872 | 26.71839 | 12038 ft | 304 kts | 130° |
| 2026-04-26 11:45 | 36.79464 | 26.73788 | 11334 ft | 300 kts | 130° |
| 2026-04-26 11:45 | 36.78092 | 26.75673 | 10795 ft | 291 kts | 130° |
| 2026-04-26 11:45 | 36.76748 | 26.77515 | 10399 ft | 285 kts | 130° |
| 2026-04-26 11:46 | 36.75425 | 26.79329 | 10107 ft | 280 kts | 130° |
| 2026-04-26 11:46 | 36.74120 | 26.81120 | 9758 ft | 278 kts | 130° |
| 2026-04-26 11:46 | 36.72822 | 26.82899 | 9372 ft | 276 kts | 130° |
| 2026-04-26 11:46 | 36.71535 | 26.84667 | 8957 ft | 275 kts | 130° |
| 2026-04-26 11:47 | 36.70248 | 26.86436 | 8514 ft | 276 kts | 129° |
| 2026-04-26 11:47 | 36.69129 | 26.88357 | 8081 ft | 273 kts | 117° |
| 2026-04-26 11:47 | 36.68282 | 26.90472 | 7642 ft | 272 kts | 114° |
| 2026-04-26 11:47 | 36.67443 | 26.92590 | 7214 ft | 272 kts | 114° |
| 2026-04-26 11:48 | 36.66601 | 26.94698 | 6788 ft | 272 kts | 114° |
| 2026-04-26 11:48 | 36.65755 | 26.96805 | 6365 ft | 272 kts | 114° |
| 2026-04-26 11:48 | 36.64911 | 26.98907 | 5921 ft | 271 kts | 114° |
| 2026-04-26 11:48 | 36.64069 | 27.01007 | 5489 ft | 271 kts | 114° |
| 2026-04-26 11:49 | 36.63225 | 27.03104 | 5053 ft | 270 kts | 115° |
| 2026-04-26 11:49 | 36.62387 | 27.05183 | 4771 ft | 263 kts | 114° |
| 2026-04-26 11:49 | 36.61586 | 27.07170 | 4629 ft | 251 kts | 114° |
| 2026-04-26 11:49 | 36.60833 | 27.09038 | 4507 ft | 238 kts | 114° |
| 2026-04-26 11:50 | 36.60107 | 27.10841 | 4379 ft | 227 kts | 114° |
| 2026-04-26 11:50 | 36.59659 | 27.12651 | 4225 ft | 214 kts | 92° |
| 2026-04-26 11:50 | 36.59745 | 27.14456 | 4082 ft | 209 kts | 73° |
| 2026-04-26 11:50 | 36.60234 | 27.16151 | 3982 ft | 208 kts | 68° |
| 2026-04-26 11:51 | 36.60574 | 27.17241 | 3914 ft | 200 kts | 68° |
| 2026-04-26 11:51 | 36.61065 | 27.18827 | 3826 ft | 193 kts | 68° |
| 2026-04-26 11:51 | 36.61641 | 27.20281 | 3719 ft | 183 kts | 47° |
| 2026-04-26 11:51 | 36.62663 | 27.21129 | 3635 ft | 177 kts | 14° |
| 2026-04-26 11:52 | 36.63876 | 27.21141 | 3557 ft | 177 kts | 342° |
| 2026-04-26 11:52 | 36.64958 | 27.20412 | 3552 ft | 179 kts | 329° |
| 2026-04-26 11:52 | 36.66019 | 27.19576 | 3419 ft | 183 kts | 328° |
| 2026-04-26 11:52 | 36.67102 | 27.18727 | 3125 ft | 185 kts | 328° |
| 2026-04-26 11:53 | 36.68191 | 27.17875 | 2844 ft | 185 kts | 328° |
| 2026-04-26 11:53 | 36.69290 | 27.17016 | 2568 ft | 187 kts | 328° |
| 2026-04-26 11:53 | 36.70384 | 27.16165 | 2307 ft | 182 kts | 328° |
| 2026-04-26 11:54 | 36.72398 | 27.14604 | 1860 ft | 160 kts | 328° |
| 2026-04-26 11:54 | 36.73317 | 27.13880 | 1614 ft | 152 kts | 327° |
| 2026-04-26 11:54 | 36.74172 | 27.13196 | 1439 ft | 139 kts | 328° |
| 2026-04-26 11:54 | 36.74977 | 27.12573 | 1317 ft | 135 kts | 328° |
| 2026-04-26 11:55 | 36.75774 | 27.11965 | 1115 ft | 135 kts | 329° |
| 2026-04-26 11:55 | 36.76571 | 27.11354 | 901 ft | 135 kts | 330° |
| 2026-04-26 11:55 | 36.77368 | 27.10729 | 737 ft | 136 kts | 330° |
| 2026-04-26 11:55 | 36.78169 | 27.10109 | 561 ft | 133 kts | 330° |
| 2026-04-26 11:56 | 36.78951 | 27.09509 | 451 ft | 129 kts | 330° |
| 2026-04-26 11:56 | 36.79603 | 27.09003 | 442 ft | 87 kts | 328° |
| 2026-04-26 11:56 | 36.79970 | 27.08717 | 438 ft | 38 kts | 328° |
| 2026-04-26 11:56 | 36.80153 | 27.08576 | 439 ft | 26 kts | 327° |
| 2026-04-26 11:57 | 36.80281 | 27.08476 | 439 ft | 20 kts | 328° |
| 2026-04-26 11:57 | 36.80340 | 27.08447 | 440 ft | 8 kts | 18° |
| 2026-04-26 11:57 | 36.80355 | 27.08504 | 442 ft | 5 kts | 95° |
| 2026-04-26 11:57 | 36.80347 | 27.08561 | 433 ft | 8 kts | 101° |
| 2026-04-26 11:58 | 36.80336 | 27.08621 | 444 ft | 6 kts | 103° |
| 2026-04-26 11:58 | 36.80321 | 27.08675 | 441 ft | 9 kts | 120° |
| 2026-04-26 11:58 | 36.80267 | 27.08730 | 439 ft | 10 kts | 147° |
| 2026-04-26 11:58 | 36.80215 | 27.08771 | 435 ft | 7 kts | 148° |
| 2026-04-26 11:59 | 36.80178 | 27.08799 | 445 ft | 5 kts | 149° |
| 2026-04-26 11:59 | 36.80148 | 27.08821 | 440 ft | 5 kts | 149° |
| 2026-04-26 11:59 | 36.80132 | 27.08834 | 433 ft | 1 kts | 149° |
| 2026-04-26 11:59 | 36.80126 | 27.08838 | 436 ft | 0 kts | 149° |
| 2026-04-26 12:01 | 36.80106 | 27.08853 | 441 ft | 7 kts | 149° |
| 2026-04-26 12:01 | 36.80068 | 27.08882 | 440 ft | 7 kts | 148° |
| 2026-04-26 12:01 | 36.80019 | 27.08920 | 445 ft | 9 kts | 148° |
| 2026-04-26 12:01 | 36.79968 | 27.08958 | 439 ft | 8 kts | 149° |
| 2026-04-26 12:02 | 36.79941 | 27.08990 | 440 ft | 3 kts | 89° |
| 2026-04-26 12:02 | 36.79950 | 27.09014 | 441 ft | 3 kts | 58° |
| 2026-04-26 12:02 | 36.79960 | 27.09033 | 438 ft | 4 kts | 58° |
| 2026-04-26 12:02 | 36.79969 | 27.09050 | 437 ft | 1 kts | 58° |
| 2026-04-26 12:03 | 36.79970 | 27.09052 | 433 ft | 0 kts | 58° |